Terminal Aerodrome Forecast
Issued by NWS Cleveland, OH

Home | Current Version | Previous Version | Text Only | Print | Product List | Glossary Off
Versions: 1 2 3 4 5 6 7 8 9 10 11 12 13 14 15 16 17

000
FTUS41 KCLE 252325
TAFTOL
TAF
KTOL 252325Z 2600/2624 23009KT P6SM SCT070
     FM260100 26005KT P6SM BKN050
      TEMPO 2601/2602 5SM -TSRA OVC035CB
     FM260700 33005KT P6SM SCT050
     FM261400 06005KT P6SM SKC=

USA.gov is the U.S. government's official web portal to all federal, state and local government web resources and services.